sensor_id;sensor_type;location;lat;lon;timestamp;pressure;altitude;pressure_sealevel;temperature;humidity
59757;BME280;45631;51.962;5.974;2022-12-24T00:01:32;100385.16;;;9.19;100.00
59757;BME280;45631;51.962;5.974;2022-12-24T00:04:01;100394.00;;;9.18;100.00
59757;BME280;45631;51.962;5.974;2022-12-24T00:06:29;100400.91;;;9.19;100.00
59757;BME280;45631;51.962;5.974;2022-12-24T00:08:57;100396.72;;;9.16;100.00
59757;BME280;45631;51.962;5.974;2022-12-24T00:11:25;100402.94;;;9.15;100.00
59757;BME280;45631;51.962;5.974;2022-12-24T00:13:55;100401.34;;;9.12;100.00
59757;BME280;45631;51.962;5.974;2022-12-24T00:16:23;100398.59;;;9.14;100.00
59757;BME280;45631;51.962;5.974;2022-12-24T00:18:51;100412.56;;;9.14;100.00
59757;BME280;45631;51.962;5.974;2022-12-24T00:21:20;100415.28;;;9.13;100.00
59757;BME280;45631;51.962;5.974;2022-12-24T00:23:48;100415.38;;;9.11;100.00
59757;BME280;45631;51.962;5.974;2022-12-24T00:26:16;100411.94;;;9.11;100.00
59757;BME280;45631;51.962;5.974;2022-12-24T00:28:44;100412.66;;;9.13;100.00
59757;BME280;45631;51.962;5.974;2022-12-24T00:31:16;100420.53;;;9.13;100.00
59757;BME280;45631;51.962;5.974;2022-12-24T00:33:45;100417.53;;;9.19;100.00
59757;BME280;45631;51.962;5.974;2022-12-24T00:36:14;100418.78;;;9.13;100.00
59757;BME280;45631;51.962;5.974;2022-12-24T00:38:43;100422.31;;;9.12;100.00
59757;BME280;45631;51.962;5.974;2022-12-24T00:41:12;100423.38;;;9.10;100.00
59757;BME280;45631;51.962;5.974;2022-12-24T00:43:56;100430.47;;;9.08;100.00
59757;BME280;45631;51.962;5.974;2022-12-24T00:46:27;100430.47;;;9.08;100.00
59757;BME280;45631;51.962;5.974;2022-12-24T00:48:56;100430.69;;;9.05;100.00
59757;BME280;45631;51.962;5.974;2022-12-24T00:51:24;100441.19;;;9.05;100.00
59757;BME280;45631;51.962;5.974;2022-12-24T00:53:52;100444.75;;;9.04;100.00
59757;BME280;45631;51.962;5.974;2022-12-24T00:56:21;100436.34;;;8.99;100.00
59757;BME280;45631;51.962;5.974;2022-12-24T00:58:50;100457.97;;;9.02;100.00
59757;BME280;45631;51.962;5.974;2022-12-24T01:01:18;100461.44;;;9.03;100.00
59757;BME280;45631;51.962;5.974;2022-12-24T01:03:49;100466.75;;;9.01;100.00
59757;BME280;45631;51.962;5.974;2022-12-24T01:06:19;100472.09;;;9.00;100.00
59757;BME280;45631;51.962;5.974;2022-12-24T01:08:49;100472.88;;;9.02;100.00
59757;BME280;45631;51.962;5.974;2022-12-24T01:11:18;100479.03;;;9.01;100.00
59757;BME280;45631;51.962;5.974;2022-12-24T01:13:46;100484.19;;;9.02;100.00
59757;BME280;45631;51.962;5.974;2022-12-24T01:16:17;100487.84;;;9.00;100.00
59757;BME280;45631;51.962;5.974;2022-12-24T01:18:46;100490.56;;;8.98;100.00
59757;BME280;45631;51.962;5.974;2022-12-24T01:21:15;100492.47;;;8.96;100.00
59757;BME280;45631;51.962;5.974;2022-12-24T01:23:44;100499.88;;;8.89;100.00
59757;BME280;45631;51.962;5.974;2022-12-24T01:26:12;100497.34;;;8.88;100.00
59757;BME280;45631;51.962;5.974;2022-12-24T01:28:40;100504.00;;;8.93;100.00
59757;BME280;45631;51.962;5.974;2022-12-24T01:31:10;100502.50;;;8.89;100.00
59757;BME280;45631;51.962;5.974;2022-12-24T01:33:39;100506.06;;;8.88;100.00
59757;BME280;45631;51.962;5.974;2022-12-24T01:36:08;100517.94;;;8.94;100.00
59757;BME280;45631;51.962;5.974;2022-12-24T01:38:38;100515.41;;;8.92;100.00
59757;BME280;45631;51.962;5.974;2022-12-24T01:41:06;100511.00;;;8.93;100.00
59757;BME280;45631;51.962;5.974;2022-12-24T01:43:56;100511.31;;;8.88;100.00
59757;BME280;45631;51.962;5.974;2022-12-24T01:46:26;100523.69;;;8.86;100.00
59757;BME280;45631;51.962;5.974;2022-12-24T01:48:57;100514.13;;;8.85;100.00
59757;BME280;45631;51.962;5.974;2022-12-24T01:51:31;100525.84;;;8.79;100.00
59757;BME280;45631;51.962;5.974;2022-12-24T01:54:05;100530.06;;;8.82;100.00
59757;BME280;45631;51.962;5.974;2022-12-24T01:56:36;100529.50;;;8.77;100.00
59757;BME280;45631;51.962;5.974;2022-12-24T01:59:10;100536.59;;;8.75;100.00
59757;BME280;45631;51.962;5.974;2022-12-24T02:01:41;100535.13;;;8.71;100.00
59757;BME280;45631;51.962;5.974;2022-12-24T02:04:14;100546.38;;;8.73;100.00
59757;BME280;45631;51.962;5.974;2022-12-24T02:06:44;100551.25;;;8.65;100.00
59757;BME280;45631;51.962;5.974;2022-12-24T02:09:14;100556.28;;;8.68;100.00
59757;BME280;45631;51.962;5.974;2022-12-24T02:11:42;100559.09;;;8.65;100.00
59757;BME280;45631;51.962;5.974;2022-12-24T02:14:14;100561.72;;;8.65;100.00
59757;BME280;45631;51.962;5.974;2022-12-24T02:16:50;100573.72;;;8.69;100.00
59757;BME280;45631;51.962;5.974;2022-12-24T02:22:40;100569.03;;;8.59;100.00
59757;BME280;45631;51.962;5.974;2022-12-24T02:25:29;100582.59;;;8.52;100.00
59757;BME280;45631;51.962;5.974;2022-12-24T02:28:06;100587.19;;;8.48;100.00
59757;BME280;45631;51.962;5.974;2022-12-24T02:30:42;100583.72;;;8.48;100.00
59757;BME280;45631;51.962;5.974;2022-12-24T02:33:14;100586.22;;;8.49;100.00
59757;BME280;45631;51.962;5.974;2022-12-24T02:35:48;100592.03;;;8.40;100.00
59757;BME280;45631;51.962;5.974;2022-12-24T02:38:22;100601.00;;;8.36;100.00
59757;BME280;45631;51.962;5.974;2022-12-24T02:40:54;100596.84;;;8.32;100.00
59757;BME280;45631;51.962;5.974;2022-12-24T02:43:27;100593.50;;;8.29;100.00
59757;BME280;45631;51.962;5.974;2022-12-24T02:45:59;100600.97;;;8.21;100.00
59757;BME280;45631;51.962;5.974;2022-12-24T02:48:30;100604.69;;;8.17;100.00
59757;BME280;45631;51.962;5.974;2022-12-24T02:51:02;100604.78;;;8.16;100.00
59757;BME280;45631;51.962;5.974;2022-12-24T02:53:31;100597.03;;;8.14;100.00
59757;BME280;45631;51.962;5.974;2022-12-24T02:56:14;100603.28;;;8.11;100.00
59757;BME280;45631;51.962;5.974;2022-12-24T02:59:01;100610.56;;;8.06;100.00
59757;BME280;45631;51.962;5.974;2022-12-24T03:01:45;100611.41;;;8.07;100.00
59757;BME280;45631;51.962;5.974;2022-12-24T03:04:22;100605.59;;;8.02;100.00
59757;BME280;45631;51.962;5.974;2022-12-24T03:07:12;100607.56;;;7.98;100.00
59757;BME280;45631;51.962;5.974;2022-12-24T03:09:54;100611.09;;;7.97;100.00
59757;BME280;45631;51.962;5.974;2022-12-24T03:12:30;100602.59;;;7.93;100.00
59757;BME280;45631;51.962;5.974;2022-12-24T03:15:00;100610.44;;;7.93;100.00
59757;BME280;45631;51.962;5.974;2022-12-24T03:17:33;100615.19;;;7.87;100.00
59757;BME280;45631;51.962;5.974;2022-12-24T03:20:04;100616.75;;;7.89;100.00
59757;BME280;45631;51.962;5.974;2022-12-24T03:22:33;100610.97;;;7.84;100.00
59757;BME280;45631;51.962;5.974;2022-12-24T03:25:03;100612.56;;;7.87;100.00
59757;BME280;45631;51.962;5.974;2022-12-24T03:27:32;100614.16;;;7.89;100.00
59757;BME280;45631;51.962;5.974;2022-12-24T03:30:03;100616.28;;;7.83;100.00
59757;BME280;45631;51.962;5.974;2022-12-24T03:32:33;100613.91;;;7.78;100.00
59757;BME280;45631;51.962;5.974;2022-12-24T03:35:01;100624.50;;;7.76;100.00
59757;BME280;45631;51.962;5.974;2022-12-24T03:37:29;100624.41;;;7.78;100.00
59757;BME280;45631;51.962;5.974;2022-12-24T03:39:58;100623.47;;;7.79;100.00
59757;BME280;45631;51.962;5.974;2022-12-24T03:42:26;100626.44;;;7.73;100.00
59757;BME280;45631;51.962;5.974;2022-12-24T03:44:54;100628.81;;;7.77;100.00
59757;BME280;45631;51.962;5.974;2022-12-24T03:47:22;100628.03;;;7.75;100.00
59757;BME280;45631;51.962;5.974;2022-12-24T03:49:51;100629.72;;;7.76;100.00
59757;BME280;45631;51.962;5.974;2022-12-24T03:52:20;100629.81;;;7.75;100.00
59757;BME280;45631;51.962;5.974;2022-12-24T03:54:48;100629.81;;;7.75;100.00
59757;BME280;45631;51.962;5.974;2022-12-24T03:57:16;100621.78;;;7.78;100.00
59757;BME280;45631;51.962;5.974;2022-12-24T03:59:44;100618.25;;;7.79;100.00
59757;BME280;45631;51.962;5.974;2022-12-24T04:02:12;100628.53;;;7.82;100.00
59757;BME280;45631;51.962;5.974;2022-12-24T04:04:40;100629.13;;;7.87;100.00
59757;BME280;45631;51.962;5.974;2022-12-24T04:07:10;100632.47;;;7.89;100.00
59757;BME280;45631;51.962;5.974;2022-12-24T04:09:38;100633.91;;;7.95;100.00
59757;BME280;45631;51.962;5.974;2022-12-24T04:12:07;100640.00;;;7.95;100.00
59757;BME280;45631;51.962;5.974;2022-12-24T04:14:35;100634.56;;;7.99;100.00
59757;BME280;45631;51.962;5.974;2022-12-24T04:17:03;100639.72;;;8.00;100.00
59757;BME280;45631;51.962;5.974;2022-12-24T04:19:31;100641.31;;;8.03;100.00
59757;BME280;45631;51.962;5.974;2022-12-24T04:21:59;100636.84;;;8.05;100.00
59757;BME280;45631;51.962;5.974;2022-12-24T04:24:29;100634.88;;;8.08;100.00
59757;BME280;45631;51.962;5.974;2022-12-24T04:26:57;100641.63;;;8.12;100.00
59757;BME280;45631;51.962;5.974;2022-12-24T04:29:25;100642.47;;;8.13;100.00
59757;BME280;45631;51.962;5.974;2022-12-24T04:31:53;100644.19;;;8.14;100.00
59757;BME280;45631;51.962;5.974;2022-12-24T04:34:21;100644.91;;;8.16;100.00
59757;BME280;45631;51.962;5.974;2022-12-24T04:36:50;100643.81;;;8.20;100.00
59757;BME280;45631;51.962;5.974;2022-12-24T04:39:18;100651.47;;;8.23;100.00
59757;BME280;45631;51.962;5.974;2022-12-24T04:41:47;100651.41;;;8.25;100.00
59757;BME280;45631;51.962;5.974;2022-12-24T04:44:16;100653.94;;;8.26;100.00
59757;BME280;45631;51.962;5.974;2022-12-24T04:46:44;100655.25;;;8.34;100.00
59757;BME280;45631;51.962;5.974;2022-12-24T04:49:12;100651.34;;;8.41;100.00
59757;BME280;45631;51.962;5.974;2022-12-24T04:51:40;100650.50;;;8.40;100.00
59757;BME280;45631;51.962;5.974;2022-12-24T04:54:08;100654.91;;;8.40;100.00
59757;BME280;45631;51.962;5.974;2022-12-24T04:56:36;100656.41;;;8.44;100.00
59757;BME280;45631;51.962;5.974;2022-12-24T04:59:06;100657.09;;;8.48;100.00
59757;BME280;45631;51.962;5.974;2022-12-24T05:01:34;100660.78;;;8.59;100.00
59757;BME280;45631;51.962;5.974;2022-12-24T05:04:03;100657.66;;;8.53;100.00
59757;BME280;45631;51.962;5.974;2022-12-24T05:06:32;100665.34;;;8.56;100.00
59757;BME280;45631;51.962;5.974;2022-12-24T05:09:01;100659.06;;;8.58;100.00
59757;BME280;45631;51.962;5.974;2022-12-24T05:11:29;100655.53;;;8.59;100.00
59757;BME280;45631;51.962;5.974;2022-12-24T05:13:58;100664.13;;;8.61;100.00
59757;BME280;45631;51.962;5.974;2022-12-24T05:16:28;100663.19;;;8.62;100.00
59757;BME280;45631;51.962;5.974;2022-12-24T05:18:56;100651.97;;;8.60;100.00
59757;BME280;45631;51.962;5.974;2022-12-24T05:21:24;100657.88;;;8.64;100.00
59757;BME280;45631;51.962;5.974;2022-12-24T05:23:53;100655.16;;;8.66;100.00
59757;BME280;45631;51.962;5.974;2022-12-24T05:26:41;100658.63;;;8.66;100.00
59757;BME280;45631;51.962;5.974;2022-12-24T05:29:11;100657.69;;;8.67;100.00
59757;BME280;45631;51.962;5.974;2022-12-24T05:31:47;100666.31;;;8.69;100.00
59757;BME280;45631;51.962;5.974;2022-12-24T05:34:36;100669.03;;;8.68;100.00
59757;BME280;45631;51.962;5.974;2022-12-24T05:37:27;100671.25;;;8.74;100.00
59757;BME280;45631;51.962;5.974;2022-12-24T05:39:55;100674.06;;;8.71;100.00
59757;BME280;45631;51.962;5.974;2022-12-24T05:42:23;100678.38;;;8.72;100.00
59757;BME280;45631;51.962;5.974;2022-12-24T05:44:52;100680.19;;;8.71;100.00
59757;BME280;45631;51.962;5.974;2022-12-24T05:47:21;100688.69;;;8.75;100.00
59757;BME280;45631;51.962;5.974;2022-12-24T05:49:49;100686.06;;;8.75;100.00
59757;BME280;45631;51.962;5.974;2022-12-24T05:52:18;100687.75;;;8.76;100.00
59757;BME280;45631;51.962;5.974;2022-12-24T05:54:46;100682.50;;;8.76;100.00
59757;BME280;45631;51.962;5.974;2022-12-24T05:57:15;100682.06;;;8.84;100.00
59757;BME280;45631;51.962;5.974;2022-12-24T05:59:43;100690.03;;;8.82;100.00
59757;BME280;45631;51.962;5.974;2022-12-24T06:02:11;100684.69;;;8.84;100.00
59757;BME280;45631;51.962;5.974;2022-12-24T06:04:41;100689.84;;;8.85;100.00
59757;BME280;45631;51.962;5.974;2022-12-24T06:07:09;100693.19;;;8.87;100.00
59757;BME280;45631;51.962;5.974;2022-12-24T06:09:37;100697.81;;;8.84;100.00
59757;BME280;45631;51.962;5.974;2022-12-24T06:12:06;100700.13;;;8.88;100.00
59757;BME280;45631;51.962;5.974;2022-12-24T06:14:34;100710.53;;;8.90;100.00
59757;BME280;45631;51.962;5.974;2022-12-24T06:17:02;100704.63;;;8.86;100.00
59757;BME280;45631;51.962;5.974;2022-12-24T06:19:30;100706.97;;;8.91;100.00
59757;BME280;45631;51.962;5.974;2022-12-24T06:22:00;100712.31;;;8.89;100.00
59757;BME280;45631;51.962;5.974;2022-12-24T06:24:28;100712.94;;;8.93;100.00
59757;BME280;45631;51.962;5.974;2022-12-24T06:26:56;100722.50;;;8.94;100.00
59757;BME280;45631;51.962;5.974;2022-12-24T06:29:25;100714.56;;;8.95;100.00
59757;BME280;45631;51.962;5.974;2022-12-24T06:31:53;100713.44;;;9.00;100.00
59757;BME280;45631;51.962;5.974;2022-12-24T06:34:21;100721.28;;;9.00;100.00
59757;BME280;45631;51.962;5.974;2022-12-24T06:36:49;100731.78;;;9.00;100.00
59757;BME280;45631;51.962;5.974;2022-12-24T06:39:19;100732.66;;;9.00;100.00
59757;BME280;45631;51.962;5.974;2022-12-24T06:41:47;100736.88;;;9.03;100.00
59757;BME280;45631;51.962;5.974;2022-12-24T06:44:15;100741.25;;;9.02;100.00
59757;BME280;45631;51.962;5.974;2022-12-24T06:46:43;100746.50;;;9.02;100.00
59757;BME280;45631;51.962;5.974;2022-12-24T06:49:11;100750.91;;;9.02;100.00
59757;BME280;45631;51.962;5.974;2022-12-24T06:51:39;100752.41;;;9.06;100.00
59757;BME280;45631;51.962;5.974;2022-12-24T06:54:07;100749.69;;;9.07;100.00
59757;BME280;45631;51.962;5.974;2022-12-24T06:56:37;100754.22;;;9.05;100.00
59757;BME280;45631;51.962;5.974;2022-12-24T06:59:06;100748.78;;;9.08;100.00
59757;BME280;45631;51.962;5.974;2022-12-24T07:01:34;100746.97;;;9.09;100.00
59757;BME280;45631;51.962;5.974;2022-12-24T07:04:03;100737.41;;;9.08;100.00
59757;BME280;45631;51.962;5.974;2022-12-24T07:06:31;100746.16;;;9.08;100.00
59757;BME280;45631;51.962;5.974;2022-12-24T07:08:59;100737.25;;;9.11;100.00
59757;BME280;45631;51.962;5.974;2022-12-24T07:11:27;100738.91;;;9.12;100.00
59757;BME280;45631;51.962;5.974;2022-12-24T07:13:57;100751.09;;;9.13;100.00
59757;BME280;45631;51.962;5.974;2022-12-24T07:16:25;100764.31;;;9.11;100.00
59757;BME280;45631;51.962;5.974;2022-12-24T07:18:53;100767.78;;;9.12;100.00
59757;BME280;45631;51.962;5.974;2022-12-24T07:21:21;100770.41;;;9.12;100.00
59757;BME280;45631;51.962;5.974;2022-12-24T07:23:49;100777.34;;;9.13;100.00
59757;BME280;45631;51.962;5.974;2022-12-24T07:26:18;100780.72;;;9.15;100.00
59757;BME280;45631;51.962;5.974;2022-12-24T07:28:46;100779.13;;;9.12;100.00
59757;BME280;45631;51.962;5.974;2022-12-24T07:31:16;100785.41;;;9.10;100.00
59757;BME280;45631;51.962;5.974;2022-12-24T07:33:44;100792.16;;;9.14;100.00
59757;BME280;45631;51.962;5.974;2022-12-24T07:36:16;100797.50;;;9.12;100.00
59757;BME280;45631;51.962;5.974;2022-12-24T07:38:45;100809.59;;;9.15;100.00
59757;BME280;45631;51.962;5.974;2022-12-24T07:41:13;100806.97;;;9.15;100.00
59757;BME280;45631;51.962;5.974;2022-12-24T07:43:42;100809.59;;;9.15;100.00
59757;BME280;45631;51.962;5.974;2022-12-24T07:46:10;100818.31;;;9.16;100.00
59757;BME280;45631;51.962;5.974;2022-12-24T07:48:39;100820.94;;;9.16;100.00
59757;BME280;45631;51.962;5.974;2022-12-24T07:51:08;100825.34;;;9.15;100.00
59757;BME280;45631;51.962;5.974;2022-12-24T07:53:36;100829.72;;;9.14;100.00
59757;BME280;45631;51.962;5.974;2022-12-24T07:56:05;100833.56;;;9.09;100.00
59757;BME280;45631;51.962;5.974;2022-12-24T07:58:38;100838.38;;;9.17;100.00
59757;BME280;45631;51.962;5.974;2022-12-24T08:01:07;100845.38;;;9.16;100.00
59757;BME280;45631;51.962;5.974;2022-12-24T08:03:36;100859.53;;;9.13;100.00
59757;BME280;45631;51.962;5.974;2022-12-24T08:06:06;100866.47;;;9.14;100.00
59757;BME280;45631;51.962;5.974;2022-12-24T08:08:34;100870.97;;;9.12;100.00
59757;BME280;45631;51.962;5.974;2022-12-24T08:11:05;100869.09;;;9.14;100.00
59757;BME280;45631;51.962;5.974;2022-12-24T08:13:34;100873.22;;;9.19;100.00
59757;BME280;45631;51.962;5.974;2022-12-24T08:16:02;100873.22;;;9.19;100.00
59757;BME280;45631;51.962;5.974;2022-12-24T08:18:31;100872.28;;;9.20;100.00
59757;BME280;45631;51.962;5.974;2022-12-24T08:20:59;100878.31;;;9.22;100.00
59757;BME280;45631;51.962;5.974;2022-12-24T08:23:31;100887.09;;;9.21;100.00
59757;BME280;45631;51.962;5.974;2022-12-24T08:25:59;100901.63;;;9.26;100.00
59757;BME280;45631;51.962;5.974;2022-12-24T08:28:27;100897.59;;;9.21;100.00
59757;BME280;45631;51.962;5.974;2022-12-24T08:30:55;100892.16;;;9.24;100.00
59757;BME280;45631;51.962;5.974;2022-12-24T08:33:24;100892.25;;;9.22;100.00
59757;BME280;45631;51.962;5.974;2022-12-24T08:35:53;100904.44;;;9.23;100.00
59757;BME280;45631;51.962;5.974;2022-12-24T08:38:22;100904.53;;;9.22;100.00
59757;BME280;45631;51.962;5.974;2022-12-24T08:40:53;100905.28;;;9.24;100.00
59757;BME280;45631;51.962;5.974;2022-12-24T08:43:22;100906.16;;;9.24;100.00
59757;BME280;45631;51.962;5.974;2022-12-24T08:45:51;100909.59;;;9.25;100.00
59757;BME280;45631;51.962;5.974;2022-12-24T08:48:20;100914.56;;;9.29;100.00
59757;BME280;45631;51.962;5.974;2022-12-24T08:50:48;100924.16;;;9.30;100.00
59757;BME280;45631;51.962;5.974;2022-12-24T08:53:16;100916.47;;;9.27;100.00
59757;BME280;45631;51.962;5.974;2022-12-24T08:55:44;100923.31;;;9.30;100.00
59757;BME280;45631;51.962;5.974;2022-12-24T08:58:23;100933.72;;;9.32;100.00
59757;BME280;45631;51.962;5.974;2022-12-24T09:00:51;100932.69;;;9.34;100.00
59757;BME280;45631;51.962;5.974;2022-12-24T09:03:19;100940.56;;;9.34;100.00
59757;BME280;45631;51.962;5.974;2022-12-24T09:05:54;100943.09;;;9.36;100.00
59757;BME280;45631;51.962;5.974;2022-12-24T09:08:22;100939.63;;;9.35;100.00
59757;BME280;45631;51.962;5.974;2022-12-24T09:10:50;100939.56;;;9.37;100.00
59757;BME280;45631;51.962;5.974;2022-12-24T09:13:18;100947.97;;;9.42;100.00
59757;BME280;45631;51.962;5.974;2022-12-24T09:15:53;100950.44;;;9.45;100.00
59757;BME280;45631;51.962;5.974;2022-12-24T09:18:21;100948.66;;;9.45;100.00
59757;BME280;45631;51.962;5.974;2022-12-24T09:20:49;100949.31;;;9.49;100.00
59757;BME280;45631;51.962;5.974;2022-12-24T09:23:23;100958.63;;;9.55;100.00
59757;BME280;45631;51.962;5.974;2022-12-24T09:25:51;100960.88;;;9.61;100.00
59757;BME280;45631;51.962;5.974;2022-12-24T09:28:19;100964.25;;;9.63;100.00
59757;BME280;45631;51.962;5.974;2022-12-24T09:30:56;100972.63;;;9.70;100.00
59757;BME280;45631;51.962;5.974;2022-12-24T09:33:24;100983.03;;;9.71;100.00
59757;BME280;45631;51.962;5.974;2022-12-24T09:35:53;100975.25;;;9.70;100.00
59757;BME280;45631;51.962;5.974;2022-12-24T09:38:21;100988.00;;;9.76;100.00
59757;BME280;45631;51.962;5.974;2022-12-24T09:40:50;100986.78;;;9.81;100.00
59757;BME280;45631;51.962;5.974;2022-12-24T09:43:22;100987.75;;;9.80;100.00
59757;BME280;45631;51.962;5.974;2022-12-24T09:46:03;100992.91;;;9.82;100.00
59757;BME280;45631;51.962;5.974;2022-12-24T09:48:37;101004.91;;;9.86;100.00
59757;BME280;45631;51.962;5.974;2022-12-24T09:51:08;101001.63;;;9.82;100.00
59757;BME280;45631;51.962;5.974;2022-12-24T09:53:40;101008.38;;;9.87;100.00
59757;BME280;45631;51.962;5.974;2022-12-24T09:56:13;101011.69;;;9.90;100.00
59757;BME280;45631;51.962;5.974;2022-12-24T09:58:45;101017.03;;;9.89;100.00
59757;BME280;45631;51.962;5.974;2022-12-24T10:01:16;101014.31;;;9.90;100.00
59757;BME280;45631;51.962;5.974;2022-12-24T10:03:46;101022.94;;;9.92;100.00
59757;BME280;45631;51.962;5.974;2022-12-24T10:06:16;101007.94;;;9.94;100.00
59757;BME280;45631;51.962;5.974;2022-12-24T10:09:05;101034.22;;;9.94;100.00
59757;BME280;45631;51.962;5.974;2022-12-24T10:11:41;101020.97;;;9.96;100.00
59757;BME280;45631;51.962;5.974;2022-12-24T10:14:33;101030.00;;;10.06;100.00
59757;BME280;45631;51.962;5.974;2022-12-24T10:17:17;101027.44;;;10.05;100.00
59757;BME280;45631;51.962;5.974;2022-12-24T10:19:56;101028.94;;;10.09;100.00
59757;BME280;45631;51.962;5.974;2022-12-24T10:22:39;101039.31;;;10.12;100.00
59757;BME280;45631;51.962;5.974;2022-12-24T10:25:16;101033.47;;;10.07;100.00
59757;BME280;45631;51.962;5.974;2022-12-24T10:27:45;101041.06;;;10.11;100.00
59757;BME280;45631;51.962;5.974;2022-12-24T10:30:15;101029.44;;;10.15;100.00
59757;BME280;45631;51.962;5.974;2022-12-24T10:32:46;101038.91;;;10.18;100.00
59757;BME280;45631;51.962;5.974;2022-12-24T10:35:20;101032.72;;;10.19;100.00
59757;BME280;45631;51.962;5.974;2022-12-24T10:37:50;101039.28;;;10.26;100.00
59757;BME280;45631;51.962;5.974;2022-12-24T10:40:28;101042.16;;;10.38;100.00
59757;BME280;45631;51.962;5.974;2022-12-24T10:42:57;101034.09;;;10.41;100.00
59757;BME280;45631;51.962;5.974;2022-12-24T10:45:30;101034.09;;;10.41;100.00
59757;BME280;45631;51.962;5.974;2022-12-24T10:48:08;101035.59;;;10.45;100.00
59757;BME280;45631;51.962;5.974;2022-12-24T10:50:52;101032.56;;;10.51;100.00
59757;BME280;45631;51.962;5.974;2022-12-24T10:53:25;101033.91;;;10.58;100.00
59757;BME280;45631;51.962;5.974;2022-12-24T10:56:06;101043.28;;;10.62;100.00
59757;BME280;45631;51.962;5.974;2022-12-24T10:58:35;101032.56;;;10.65;100.00
59757;BME280;45631;51.962;5.974;2022-12-24T11:01:03;101039.53;;;10.67;100.00
59757;BME280;45631;51.962;5.974;2022-12-24T11:03:35;101036.69;;;10.70;100.00
59757;BME280;45631;51.962;5.974;2022-12-24T11:06:07;101047.22;;;10.70;100.00
59757;BME280;45631;51.962;5.974;2022-12-24T11:08:37;101044.78;;;10.67;100.00
59757;BME280;45631;51.962;5.974;2022-12-24T11:11:07;101053.91;;;10.61;100.00
59757;BME280;45631;51.962;5.974;2022-12-24T11:13:38;101047.25;;;10.55;100.00
59757;BME280;45631;51.962;5.974;2022-12-24T11:16:13;101042.41;;;10.62;100.00
59757;BME280;45631;51.962;5.974;2022-12-24T11:18:47;101046.53;;;10.66;100.00
59757;BME280;45631;51.962;5.974;2022-12-24T11:21:20;101044.88;;;10.65;100.00
59757;BME280;45631;51.962;5.974;2022-12-24T11:23:50;101038.66;;;10.66;100.00
59757;BME280;45631;51.962;5.974;2022-12-24T11:26:28;101038.59;;;10.68;100.00
59757;BME280;45631;51.962;5.974;2022-12-24T11:29:13;101033.50;;;10.64;100.00
59757;BME280;45631;51.962;5.974;2022-12-24T11:31:43;101043.09;;;10.65;100.00
59757;BME280;45631;51.962;5.974;2022-12-24T11:34:25;101028.91;;;10.68;100.00
59757;BME280;45631;51.962;5.974;2022-12-24T11:37:06;101049.09;;;10.68;100.00
59757;BME280;45631;51.962;5.974;2022-12-24T11:39:44;101042.78;;;10.70;100.00
59757;BME280;45631;51.962;5.974;2022-12-24T11:42:24;101050.25;;;10.63;100.00
59757;BME280;45631;51.962;5.974;2022-12-24T11:44:54;101053.59;;;10.65;100.00
59757;BME280;45631;51.962;5.974;2022-12-24T11:47:32;101062.16;;;10.69;100.00
59757;BME280;45631;51.962;5.974;2022-12-24T11:53:06;101055.66;;;10.75;100.00
59757;BME280;45631;51.962;5.974;2022-12-24T11:55:42;101055.88;;;10.72;100.00
59757;BME280;45631;51.962;5.974;2022-12-24T11:58:21;101043.34;;;10.75;100.00
59757;BME280;45631;51.962;5.974;2022-12-24T12:01:01;101049.47;;;10.76;100.00
59757;BME280;45631;51.962;5.974;2022-12-24T12:03:39;101048.34;;;10.80;100.00
59757;BME280;45631;51.962;5.974;2022-12-24T12:06:19;101053.78;;;10.77;100.00
59757;BME280;45631;51.962;5.974;2022-12-24T12:08:55;101053.69;;;10.78;100.00
59757;BME280;45631;51.962;5.974;2022-12-24T12:11:24;101062.78;;;10.73;100.00
59757;BME280;45631;51.962;5.974;2022-12-24T12:13:56;101063.94;;;10.69;100.00
59757;BME280;45631;51.962;5.974;2022-12-24T12:16:29;101070.50;;;10.76;100.00
59757;BME280;45631;51.962;5.974;2022-12-24T12:19:20;101074.28;;;10.72;100.00
59757;BME280;45631;51.962;5.974;2022-12-24T12:21:52;101071.81;;;10.69;100.00
59757;BME280;45631;51.962;5.974;2022-12-24T12:24:25;101079.53;;;10.72;100.00
59757;BME280;45631;51.962;5.974;2022-12-24T12:27:04;101081.09;;;10.74;100.00
59757;BME280;45631;51.962;5.974;2022-12-24T12:29:39;101078.69;;;10.71;100.00
59757;BME280;45631;51.962;5.974;2022-12-24T12:32:14;101077.53;;;10.75;100.00
59757;BME280;45631;51.962;5.974;2022-12-24T12:34:50;101077.44;;;10.77;100.00
59757;BME280;45631;51.962;5.974;2022-12-24T12:37:28;101085.44;;;10.75;100.00
59757;BME280;45631;51.962;5.974;2022-12-24T12:39:59;101090.44;;;10.65;100.00
59757;BME280;45631;51.962;5.974;2022-12-24T12:42:29;101096.06;;;10.74;100.00
59757;BME280;45631;51.962;5.974;2022-12-24T12:45:12;101097.84;;;10.73;100.00
59757;BME280;45631;51.962;5.974;2022-12-24T12:47:54;101098.41;;;10.64;100.00
59757;BME280;45631;51.962;5.974;2022-12-24T12:50:30;101097.00;;;10.73;100.00
59757;BME280;45631;51.962;5.974;2022-12-24T12:53:21;101108.28;;;10.75;100.00
59757;BME280;45631;51.962;5.974;2022-12-24T12:56:00;101106.22;;;10.80;100.00
59757;BME280;45631;51.962;5.974;2022-12-24T12:58:36;101115.50;;;10.71;100.00
59757;BME280;45631;51.962;5.974;2022-12-24T13:01:19;101117.88;;;10.76;100.00
59757;BME280;45631;51.962;5.974;2022-12-24T13:04:27;101112.50;;;10.77;100.00
59757;BME280;45631;51.962;5.974;2022-12-24T13:07:37;101122.75;;;10.82;100.00
59757;BME280;45631;51.962;5.974;2022-12-24T13:13:40;101126.41;;;10.65;100.00
59757;BME280;45631;51.962;5.974;2022-12-24T13:16:31;101138.81;;;10.63;100.00
59757;BME280;45631;51.962;5.974;2022-12-24T13:19:16;101138.91;;;10.61;100.00
59757;BME280;45631;51.962;5.974;2022-12-24T13:21:53;101132.13;;;10.57;100.00